createdAt,value
2022-11-24T00:04:18.771Z,7.5
2022-11-24T00:18:48.437Z,7.6
2022-11-24T00:33:18.591Z,7.5
2022-11-24T00:47:45.423Z,7
2022-11-24T01:02:15.219Z,7.1
2022-11-24T01:16:45.396Z,7.2
2022-11-24T01:31:14.897Z,7.1
2022-11-24T01:45:45.594Z,7.4
2022-11-24T02:00:16.231Z,7.4
2022-11-24T02:14:46.212Z,7.4
2022-11-24T02:29:15.620Z,7.4
2022-11-24T02:43:46.481Z,7.5
2022-11-24T02:58:17.638Z,7.6
2022-11-24T03:12:48.138Z,7.8
2022-11-24T03:27:17.605Z,7.5
2022-11-24T03:41:46.776Z,7.4
2022-11-24T03:56:15.802Z,7.4
2022-11-24T04:10:45.340Z,7.4
2022-11-24T04:25:15.637Z,7.6
2022-11-24T04:39:45.482Z,7.8
2022-11-24T04:54:15.944Z,7.8
2022-11-24T05:08:45.062Z,8
2022-11-24T05:23:15.875Z,8.1
2022-11-24T05:37:46.235Z,8.1
2022-11-24T05:52:16.013Z,8.1
2022-11-24T06:06:45.974Z,8.1
2022-11-24T06:21:15.308Z,8.1
2022-11-24T06:35:43.171Z,8.1
2022-11-24T06:50:13.355Z,8
2022-11-24T07:04:43.284Z,8
2022-11-24T07:19:12.464Z,8
2022-11-24T07:33:42.552Z,8
2022-11-24T07:48:12.366Z,8
2022-11-24T08:02:42.656Z,8.1
2022-11-24T08:17:13.513Z,8.1
2022-11-24T08:31:43.058Z,8.1
2022-11-24T08:46:12.960Z,8.1
2022-11-24T09:00:43.153Z,7.9
2022-11-24T09:15:13.303Z,8
2022-11-24T09:29:43.217Z,8.1
2022-11-24T09:44:14.019Z,8.2
2022-11-24T09:58:44.079Z,8.3
2022-11-24T10:13:14.844Z,8.4
2022-11-24T10:27:44.895Z,8.5
2022-11-24T10:42:17.376Z,8.6
2022-11-24T10:56:47.648Z,8.7
2022-11-24T11:11:18.680Z,9.1
2022-11-24T11:25:49.228Z,9.3
2022-11-24T11:40:18.652Z,9.3
2022-11-24T11:54:55.593Z,9.9
2022-11-24T12:09:22.760Z,9.9
2022-11-24T12:23:51.400Z,9.8
2022-11-24T12:38:19.012Z,9.4
2022-11-24T12:52:49.594Z,9.6
2022-11-24T13:07:21.445Z,9.4
2022-11-24T13:21:50.413Z,9.1
2022-11-24T13:36:19.502Z,9.1
2022-11-24T13:50:48.031Z,9.2
2022-11-24T14:05:18.593Z,9.3
2022-11-24T14:19:50.792Z,9.9
2022-11-24T14:34:21.135Z,10
2022-11-24T14:48:49.234Z,9.6
2022-11-24T15:03:18.835Z,9.6
2022-11-24T15:17:45.949Z,9.4
2022-11-24T15:32:15.074Z,8.9
2022-11-24T15:46:43.731Z,8.8
2022-11-24T16:01:12.591Z,8.3
2022-11-24T16:15:43.249Z,8.1
2022-11-24T16:30:12.036Z,8.2
2022-11-24T16:44:41.432Z,8.1
2022-11-24T16:59:11.746Z,8.4
2022-11-24T17:13:40.781Z,8
2022-11-24T17:28:09.339Z,7.6
2022-11-24T17:42:37.940Z,7.4
2022-11-24T17:57:07.323Z,7.4
2022-11-24T18:11:35.551Z,7.3
2022-11-24T18:26:04.753Z,7.3
2022-11-24T18:40:35.874Z,7.2
2022-11-24T18:55:05.750Z,7.3
2022-11-24T19:09:33.518Z,7.3
2022-11-24T19:24:05.162Z,7.4
2022-11-24T19:38:31.520Z,7.2
2022-11-24T19:53:00.816Z,6.9
2022-11-24T20:07:27.637Z,6.5
2022-11-24T20:21:58.484Z,6.7
2022-11-24T20:36:25.674Z,5.8
2022-11-24T20:50:54.846Z,5.8
2022-11-24T21:05:22.810Z,5.4
2022-11-24T21:19:55.775Z,5.5
2022-11-24T21:34:25.205Z,5.8
2022-11-24T21:48:55.286Z,6
2022-11-24T22:03:24.742Z,5.7
2022-11-24T22:17:53.302Z,5.4
2022-11-24T22:32:23.031Z,5.7
2022-11-24T22:46:53.857Z,6.2
2022-11-24T23:01:22.930Z,6.2
2022-11-24T23:15:53.951Z,6.5
2022-11-24T23:30:23.221Z,6.3
2022-11-24T23:44:52.790Z,6
2022-11-24T23:59:21.260Z,6.2
